METAR Data
IDs: Format: Raw Decoded Include TAF

Data at: 0013 UTC 30 May 2020

METAR for:KCCY (Charles City/NE Iowa, IA, US)
Text:KCCY 292355Z AUTO 35015KT 10SM CLR 19/08 A3012 RMK AO2
Temperature: 19.0°C ( 66°F)
Dewpoint: 8.0°C ( 46°F) [RH = 49%]
Pressure (altimeter):30.12 inches Hg (1020.1 mb)
Winds:from the N (350 degrees) at 17 MPH (15 knots; 7.7 m/s)
Visibility:10 or more sm (16+ km)
Ceiling:at least 12,000 feet AGL
Clouds:sky clear below 12,000 feet AGL
QC Flag:automated observation with no human augmentation